Harveys Lake, Pennsylvania
Current Conditions -  °F | °C
As of 6:54 PM on Saturday 22 Nov 2014 (Local Time) from KAVP Reporting Station
Overcast Overcast  
Wind Chill: 32°   Ceiling: 4100
Heat Index: 38°   Visibility: 10mi
Dew Point: 16°   Wind: 8mph
Humidity: 41%   Direction: 230°SW
Pressure: 30.18"   Gusts: NA
Location:  41.38°N, 76.02°W
Report Text: KAVP 222354Z 23007KT 10SM SCT029 BKN041 OVC050 03/M09 A3018 RMK AO2 SLP229 60000 T00331089 10056 20033 58004
Loading
Personal Weather Stations






























Interactive Weather Map New forecast layout! Learn more

10-Day Weather Forecast

Advertisements
Track Severe Weather on mobile